sensor_id;sensor_type;location;lat;lon;timestamp;temperature;humidity
25708;DHT22;13567;61.652;17.100;2022-07-29T00:01:02;10.40;99.90
25708;DHT22;13567;61.652;17.100;2022-07-29T00:03:29;10.40;99.90
25708;DHT22;13567;61.652;17.100;2022-07-29T00:05:57;10.40;99.90
25708;DHT22;13567;61.652;17.100;2022-07-29T00:08:24;10.30;99.90
25708;DHT22;13567;61.652;17.100;2022-07-29T00:10:51;10.30;99.90
25708;DHT22;13567;61.652;17.100;2022-07-29T00:13:18;10.30;99.90
25708;DHT22;13567;61.652;17.100;2022-07-29T00:15:58;10.30;99.90
25708;DHT22;13567;61.652;17.100;2022-07-29T00:18:31;10.30;99.90
25708;DHT22;13567;61.652;17.100;2022-07-29T00:20:58;10.30;99.90
25708;DHT22;13567;61.652;17.100;2022-07-29T00:23:25;10.20;99.90
25708;DHT22;13567;61.652;17.100;2022-07-29T00:25:52;10.20;99.90
25708;DHT22;13567;61.652;17.100;2022-07-29T00:28:19;10.20;99.90
25708;DHT22;13567;61.652;17.100;2022-07-29T00:30:46;10.20;99.90
25708;DHT22;13567;61.652;17.100;2022-07-29T00:33:13;10.20;99.90
25708;DHT22;13567;61.652;17.100;2022-07-29T00:35:40;10.10;99.90
25708;DHT22;13567;61.652;17.100;2022-07-29T00:38:14;10.10;99.90
25708;DHT22;13567;61.652;17.100;2022-07-29T00:40:42;10.10;99.90
25708;DHT22;13567;61.652;17.100;2022-07-29T00:43:11;10.10;99.90
25708;DHT22;13567;61.652;17.100;2022-07-29T00:45:38;10.20;99.90
25708;DHT22;13567;61.652;17.100;2022-07-29T00:48:05;10.30;99.90
25708;DHT22;13567;61.652;17.100;2022-07-29T00:50:33;10.30;99.90
25708;DHT22;13567;61.652;17.100;2022-07-29T00:53:01;10.20;99.90
25708;DHT22;13567;61.652;17.100;2022-07-29T00:55:29;10.20;99.90
25708;DHT22;13567;61.652;17.100;2022-07-29T00:57:57;10.20;99.90
25708;DHT22;13567;61.652;17.100;2022-07-29T01:00:26;10.20;99.90
25708;DHT22;13567;61.652;17.100;2022-07-29T01:02:54;10.10;99.90
25708;DHT22;13567;61.652;17.100;2022-07-29T01:05:23;10.10;99.90
25708;DHT22;13567;61.652;17.100;2022-07-29T01:08:12;10.00;99.90
25708;DHT22;13567;61.652;17.100;2022-07-29T01:10:40;10.10;99.90
25708;DHT22;13567;61.652;17.100;2022-07-29T01:13:09;10.00;99.90
25708;DHT22;13567;61.652;17.100;2022-07-29T01:15:57;10.00;99.90
25708;DHT22;13567;61.652;17.100;2022-07-29T01:18:32;9.90;99.90
25708;DHT22;13567;61.652;17.100;2022-07-29T01:26:52;9.90;99.90
25708;DHT22;13567;61.652;17.100;2022-07-29T01:32:08;9.90;99.90
25708;DHT22;13567;61.652;17.100;2022-07-29T01:35:19;9.90;99.90
25708;DHT22;13567;61.652;17.100;2022-07-29T01:40:47;9.80;99.90
25708;DHT22;13567;61.652;17.100;2022-07-29T01:43:29;9.90;99.90
25708;DHT22;13567;61.652;17.100;2022-07-29T01:46:01;9.90;99.90
25708;DHT22;13567;61.652;17.100;2022-07-29T01:48:31;9.90;99.90
25708;DHT22;13567;61.652;17.100;2022-07-29T01:51:09;9.80;99.90
25708;DHT22;13567;61.652;17.100;2022-07-29T01:54:10;9.90;99.90
25708;DHT22;13567;61.652;17.100;2022-07-29T01:56:37;9.90;99.90
25708;DHT22;13567;61.652;17.100;2022-07-29T01:59:07;9.90;99.90
25708;DHT22;13567;61.652;17.100;2022-07-29T02:01:36;9.90;99.90
25708;DHT22;13567;61.652;17.100;2022-07-29T02:04:05;9.90;99.90
25708;DHT22;13567;61.652;17.100;2022-07-29T02:06:36;9.80;99.90
25708;DHT22;13567;61.652;17.100;2022-07-29T02:09:04;9.80;99.90
25708;DHT22;13567;61.652;17.100;2022-07-29T02:11:35;9.80;99.90
25708;DHT22;13567;61.652;17.100;2022-07-29T02:14:05;9.70;99.90
25708;DHT22;13567;61.652;17.100;2022-07-29T02:16:34;9.80;99.90
25708;DHT22;13567;61.652;17.100;2022-07-29T02:19:03;9.80;99.90
25708;DHT22;13567;61.652;17.100;2022-07-29T02:21:32;9.80;99.90
25708;DHT22;13567;61.652;17.100;2022-07-29T02:24:01;9.80;99.90
25708;DHT22;13567;61.652;17.100;2022-07-29T02:26:29;9.80;99.90
25708;DHT22;13567;61.652;17.100;2022-07-29T02:29:00;9.80;99.90
25708;DHT22;13567;61.652;17.100;2022-07-29T02:31:31;9.90;99.90
25708;DHT22;13567;61.652;17.100;2022-07-29T02:34:02;9.90;99.90
25708;DHT22;13567;61.652;17.100;2022-07-29T02:36:31;9.90;99.90
25708;DHT22;13567;61.652;17.100;2022-07-29T02:38:59;9.90;99.90
25708;DHT22;13567;61.652;17.100;2022-07-29T02:41:43;9.90;99.90
25708;DHT22;13567;61.652;17.100;2022-07-29T02:44:18;9.90;99.90
25708;DHT22;13567;61.652;17.100;2022-07-29T02:47:04;9.90;99.90
25708;DHT22;13567;61.652;17.100;2022-07-29T02:49:51;9.90;99.90
25708;DHT22;13567;61.652;17.100;2022-07-29T02:52:29;9.90;99.90
25708;DHT22;13567;61.652;17.100;2022-07-29T02:55:02;9.90;99.90
25708;DHT22;13567;61.652;17.100;2022-07-29T02:57:44;9.90;99.90
25708;DHT22;13567;61.652;17.100;2022-07-29T03:00:22;9.90;99.90
25708;DHT22;13567;61.652;17.100;2022-07-29T03:02:52;9.90;99.90
25708;DHT22;13567;61.652;17.100;2022-07-29T03:05:20;9.90;99.90
25708;DHT22;13567;61.652;17.100;2022-07-29T03:07:55;9.90;99.90
25708;DHT22;13567;61.652;17.100;2022-07-29T03:10:25;9.90;99.90
25708;DHT22;13567;61.652;17.100;2022-07-29T03:12:53;9.90;99.90
25708;DHT22;13567;61.652;17.100;2022-07-29T03:15:20;9.90;99.90
25708;DHT22;13567;61.652;17.100;2022-07-29T03:17:51;9.90;99.90
25708;DHT22;13567;61.652;17.100;2022-07-29T03:20:18;10.00;99.90
25708;DHT22;13567;61.652;17.100;2022-07-29T03:22:45;10.00;99.90
25708;DHT22;13567;61.652;17.100;2022-07-29T03:25:17;10.00;99.90
25708;DHT22;13567;61.652;17.100;2022-07-29T03:27:45;10.10;99.90
25708;DHT22;13567;61.652;17.100;2022-07-29T03:30:13;10.10;99.90
25708;DHT22;13567;61.652;17.100;2022-07-29T03:32:49;10.10;99.90
25708;DHT22;13567;61.652;17.100;2022-07-29T03:35:19;10.20;99.90
25708;DHT22;13567;61.652;17.100;2022-07-29T03:37:46;10.20;99.90
25708;DHT22;13567;61.652;17.100;2022-07-29T03:40:22;10.20;99.90
25708;DHT22;13567;61.652;17.100;2022-07-29T03:42:54;10.20;99.90
25708;DHT22;13567;61.652;17.100;2022-07-29T03:45:22;10.30;99.90
25708;DHT22;13567;61.652;17.100;2022-07-29T03:47:53;10.40;99.90
25708;DHT22;13567;61.652;17.100;2022-07-29T03:50:28;10.40;99.90
25708;DHT22;13567;61.652;17.100;2022-07-29T03:52:57;10.40;99.90
25708;DHT22;13567;61.652;17.100;2022-07-29T03:55:26;10.50;99.90
25708;DHT22;13567;61.652;17.100;2022-07-29T03:57:56;10.50;99.90
25708;DHT22;13567;61.652;17.100;2022-07-29T04:00:27;10.60;99.90
25708;DHT22;13567;61.652;17.100;2022-07-29T04:02:54;10.60;99.90
25708;DHT22;13567;61.652;17.100;2022-07-29T04:05:21;10.70;99.90
25708;DHT22;13567;61.652;17.100;2022-07-29T04:07:48;10.70;99.90
25708;DHT22;13567;61.652;17.100;2022-07-29T04:10:15;10.70;99.90
25708;DHT22;13567;61.652;17.100;2022-07-29T04:12:56;10.70;99.90
25708;DHT22;13567;61.652;17.100;2022-07-29T04:15:23;10.80;99.90
25708;DHT22;13567;61.652;17.100;2022-07-29T04:17:50;10.80;99.90
25708;DHT22;13567;61.652;17.100;2022-07-29T04:20:17;10.90;99.90
25708;DHT22;13567;61.652;17.100;2022-07-29T04:22:43;10.90;99.90
25708;DHT22;13567;61.652;17.100;2022-07-29T04:25:10;10.90;99.90
25708;DHT22;13567;61.652;17.100;2022-07-29T04:27:37;11.00;99.90
25708;DHT22;13567;61.652;17.100;2022-07-29T04:30:24;11.00;99.90
25708;DHT22;13567;61.652;17.100;2022-07-29T04:32:51;11.00;99.90
25708;DHT22;13567;61.652;17.100;2022-07-29T04:35:19;11.10;99.90
25708;DHT22;13567;61.652;17.100;2022-07-29T04:37:46;11.10;99.90
25708;DHT22;13567;61.652;17.100;2022-07-29T04:40:13;11.20;99.90
25708;DHT22;13567;61.652;17.100;2022-07-29T04:42:40;11.20;99.90
25708;DHT22;13567;61.652;17.100;2022-07-29T04:45:13;11.40;99.90
25708;DHT22;13567;61.652;17.100;2022-07-29T04:47:41;11.40;99.90
25708;DHT22;13567;61.652;17.100;2022-07-29T04:50:09;11.40;99.90
25708;DHT22;13567;61.652;17.100;2022-07-29T04:52:36;11.50;99.90
25708;DHT22;13567;61.652;17.100;2022-07-29T04:55:05;11.50;99.90
25708;DHT22;13567;61.652;17.100;2022-07-29T04:57:32;11.60;99.90
25708;DHT22;13567;61.652;17.100;2022-07-29T04:59:59;11.60;99.90
25708;DHT22;13567;61.652;17.100;2022-07-29T05:02:26;11.70;99.90
25708;DHT22;13567;61.652;17.100;2022-07-29T05:04:53;11.80;99.90
25708;DHT22;13567;61.652;17.100;2022-07-29T05:07:20;11.90;99.90
25708;DHT22;13567;61.652;17.100;2022-07-29T05:09:47;11.90;99.90
25708;DHT22;13567;61.652;17.100;2022-07-29T05:12:14;11.90;99.90
25708;DHT22;13567;61.652;17.100;2022-07-29T05:14:41;12.00;99.90
25708;DHT22;13567;61.652;17.100;2022-07-29T05:17:08;12.10;99.90
25708;DHT22;13567;61.652;17.100;2022-07-29T05:19:35;12.10;99.90
25708;DHT22;13567;61.652;17.100;2022-07-29T05:22:05;12.20;99.90
25708;DHT22;13567;61.652;17.100;2022-07-29T05:24:32;12.20;99.90
25708;DHT22;13567;61.652;17.100;2022-07-29T05:26:59;12.20;99.90
25708;DHT22;13567;61.652;17.100;2022-07-29T05:29:26;12.30;99.90
25708;DHT22;13567;61.652;17.100;2022-07-29T05:32:11;12.40;99.90
25708;DHT22;13567;61.652;17.100;2022-07-29T05:34:38;12.50;99.90
25708;DHT22;13567;61.652;17.100;2022-07-29T05:37:20;12.60;99.90
25708;DHT22;13567;61.652;17.100;2022-07-29T05:39:47;12.70;99.90
25708;DHT22;13567;61.652;17.100;2022-07-29T05:42:23;12.70;99.90
25708;DHT22;13567;61.652;17.100;2022-07-29T05:44:50;12.90;99.90
25708;DHT22;13567;61.652;17.100;2022-07-29T05:47:17;13.10;99.90
25708;DHT22;13567;61.652;17.100;2022-07-29T05:49:44;13.20;99.90
25708;DHT22;13567;61.652;17.100;2022-07-29T05:52:12;13.40;99.90
25708;DHT22;13567;61.652;17.100;2022-07-29T05:54:39;13.60;99.90
25708;DHT22;13567;61.652;17.100;2022-07-29T05:57:06;13.90;99.90
25708;DHT22;13567;61.652;17.100;2022-07-29T05:59:37;14.20;99.90
25708;DHT22;13567;61.652;17.100;2022-07-29T06:02:04;14.20;99.90
25708;DHT22;13567;61.652;17.100;2022-07-29T06:04:32;14.30;99.90
25708;DHT22;13567;61.652;17.100;2022-07-29T06:07:00;14.40;99.90
25708;DHT22;13567;61.652;17.100;2022-07-29T06:09:28;14.50;99.90
25708;DHT22;13567;61.652;17.100;2022-07-29T06:11:55;14.60;99.90
25708;DHT22;13567;61.652;17.100;2022-07-29T06:14:22;14.80;99.90
25708;DHT22;13567;61.652;17.100;2022-07-29T06:16:49;15.00;99.90
25708;DHT22;13567;61.652;17.100;2022-07-29T06:19:16;15.20;99.90
25708;DHT22;13567;61.652;17.100;2022-07-29T06:21:46;15.20;99.90
25708;DHT22;13567;61.652;17.100;2022-07-29T06:24:14;15.30;99.90
25708;DHT22;13567;61.652;17.100;2022-07-29T06:26:42;15.70;99.90
25708;DHT22;13567;61.652;17.100;2022-07-29T06:29:09;15.80;99.90
25708;DHT22;13567;61.652;17.100;2022-07-29T06:31:39;16.00;99.90
25708;DHT22;13567;61.652;17.100;2022-07-29T06:34:06;16.30;99.90
25708;DHT22;13567;61.652;17.100;2022-07-29T06:36:36;16.60;99.90
25708;DHT22;13567;61.652;17.100;2022-07-29T06:39:06;16.80;99.90
25708;DHT22;13567;61.652;17.100;2022-07-29T06:41:33;16.80;99.90
25708;DHT22;13567;61.652;17.100;2022-07-29T06:44:00;17.00;99.90
25708;DHT22;13567;61.652;17.100;2022-07-29T06:46:28;17.00;99.90
25708;DHT22;13567;61.652;17.100;2022-07-29T06:48:55;17.30;99.90
25708;DHT22;13567;61.652;17.100;2022-07-29T06:51:22;17.60;99.90
25708;DHT22;13567;61.652;17.100;2022-07-29T06:53:53;17.60;99.90
25708;DHT22;13567;61.652;17.100;2022-07-29T06:56:33;17.60;99.90
25708;DHT22;13567;61.652;17.100;2022-07-29T06:59:07;17.80;99.90
25708;DHT22;13567;61.652;17.100;2022-07-29T07:01:36;18.10;99.90
25708;DHT22;13567;61.652;17.100;2022-07-29T07:04:04;18.30;99.90
25708;DHT22;13567;61.652;17.100;2022-07-29T07:06:31;18.30;99.90
25708;DHT22;13567;61.652;17.100;2022-07-29T07:08:57;18.50;99.90
25708;DHT22;13567;61.652;17.100;2022-07-29T07:11:24;18.60;99.90
25708;DHT22;13567;61.652;17.100;2022-07-29T07:13:51;18.80;99.90
25708;DHT22;13567;61.652;17.100;2022-07-29T07:16:18;19.00;99.90
25708;DHT22;13567;61.652;17.100;2022-07-29T07:18:45;19.10;99.90
25708;DHT22;13567;61.652;17.100;2022-07-29T07:21:12;19.30;99.90
25708;DHT22;13567;61.652;17.100;2022-07-29T07:23:45;19.30;99.90
25708;DHT22;13567;61.652;17.100;2022-07-29T07:26:12;19.30;99.90
25708;DHT22;13567;61.652;17.100;2022-07-29T07:28:39;19.40;99.90
25708;DHT22;13567;61.652;17.100;2022-07-29T07:31:06;19.40;99.90
25708;DHT22;13567;61.652;17.100;2022-07-29T07:33:33;19.60;99.90
25708;DHT22;13567;61.652;17.100;2022-07-29T07:36:00;19.80;99.50
25708;DHT22;13567;61.652;17.100;2022-07-29T07:38:27;19.70;99.80
25708;DHT22;13567;61.652;17.100;2022-07-29T07:40:54;19.70;99.70
25708;DHT22;13567;61.652;17.100;2022-07-29T07:43:21;19.90;99.30
25708;DHT22;13567;61.652;17.100;2022-07-29T07:45:49;20.30;97.80
25708;DHT22;13567;61.652;17.100;2022-07-29T07:48:16;20.80;97.30
25708;DHT22;13567;61.652;17.100;2022-07-29T07:50:43;21.00;96.50
25708;DHT22;13567;61.652;17.100;2022-07-29T07:53:10;21.20;96.30
25708;DHT22;13567;61.652;17.100;2022-07-29T07:55:41;21.30;95.70
25708;DHT22;13567;61.652;17.100;2022-07-29T07:58:28;21.30;95.00
25708;DHT22;13567;61.652;17.100;2022-07-29T08:00:55;21.80;94.10
25708;DHT22;13567;61.652;17.100;2022-07-29T08:03:22;21.90;94.30
25708;DHT22;13567;61.652;17.100;2022-07-29T08:05:49;22.30;94.00
25708;DHT22;13567;61.652;17.100;2022-07-29T08:08:18;22.20;92.40
25708;DHT22;13567;61.652;17.100;2022-07-29T08:10:45;22.70;91.50
25708;DHT22;13567;61.652;17.100;2022-07-29T08:13:20;23.20;90.40
25708;DHT22;13567;61.652;17.100;2022-07-29T08:15:48;23.40;87.50
25708;DHT22;13567;61.652;17.100;2022-07-29T08:18:25;23.90;84.80
25708;DHT22;13567;61.652;17.100;2022-07-29T08:20:52;24.00;81.20
25708;DHT22;13567;61.652;17.100;2022-07-29T08:23:19;24.40;78.30
25708;DHT22;13567;61.652;17.100;2022-07-29T08:25:46;24.50;78.80
25708;DHT22;13567;61.652;17.100;2022-07-29T08:28:16;24.70;77.00
25708;DHT22;13567;61.652;17.100;2022-07-29T08:30:43;24.90;72.10
25708;DHT22;13567;61.652;17.100;2022-07-29T08:33:10;24.90;77.20
25708;DHT22;13567;61.652;17.100;2022-07-29T08:35:38;25.40;70.50
25708;DHT22;13567;61.652;17.100;2022-07-29T08:38:05;25.70;71.30
25708;DHT22;13567;61.652;17.100;2022-07-29T08:40:32;25.80;65.60
25708;DHT22;13567;61.652;17.100;2022-07-29T08:43:09;25.50;65.10
25708;DHT22;13567;61.652;17.100;2022-07-29T08:45:47;25.90;66.70
25708;DHT22;13567;61.652;17.100;2022-07-29T08:48:16;25.50;65.40
25708;DHT22;13567;61.652;17.100;2022-07-29T08:50:45;25.80;63.30
25708;DHT22;13567;61.652;17.100;2022-07-29T08:53:17;26.40;64.80
25708;DHT22;13567;61.652;17.100;2022-07-29T08:55:46;27.10;61.30
25708;DHT22;13567;61.652;17.100;2022-07-29T08:58:14;27.20;57.00
25708;DHT22;13567;61.652;17.100;2022-07-29T09:00:46;27.40;55.40
25708;DHT22;13567;61.652;17.100;2022-07-29T09:03:22;27.60;54.10
25708;DHT22;13567;61.652;17.100;2022-07-29T09:05:50;27.40;56.60
25708;DHT22;13567;61.652;17.100;2022-07-29T09:08:17;27.20;54.70
25708;DHT22;13567;61.652;17.100;2022-07-29T09:10:46;27.10;54.00
25708;DHT22;13567;61.652;17.100;2022-07-29T09:13:13;27.30;54.50
25708;DHT22;13567;61.652;17.100;2022-07-29T09:15:39;27.30;52.40
25708;DHT22;13567;61.652;17.100;2022-07-29T09:18:06;27.10;52.80
25708;DHT22;13567;61.652;17.100;2022-07-29T09:20:53;26.70;54.10
25708;DHT22;13567;61.652;17.100;2022-07-29T09:23:39;27.40;53.30
25708;DHT22;13567;61.652;17.100;2022-07-29T09:26:08;28.00;51.20
25708;DHT22;13567;61.652;17.100;2022-07-29T09:28:41;28.50;51.50
25708;DHT22;13567;61.652;17.100;2022-07-29T09:31:08;28.30;52.20
25708;DHT22;13567;61.652;17.100;2022-07-29T09:33:35;27.90;49.60
25708;DHT22;13567;61.652;17.100;2022-07-29T09:36:05;28.60;51.20
25708;DHT22;13567;61.652;17.100;2022-07-29T09:38:33;28.90;48.50
25708;DHT22;13567;61.652;17.100;2022-07-29T09:41:01;29.30;49.10
25708;DHT22;13567;61.652;17.100;2022-07-29T09:43:32;29.70;47.00
25708;DHT22;13567;61.652;17.100;2022-07-29T09:46:12;30.10;47.70
25708;DHT22;13567;61.652;17.100;2022-07-29T09:48:40;29.70;44.70
25708;DHT22;13567;61.652;17.100;2022-07-29T09:51:20;28.70;46.90
25708;DHT22;13567;61.652;17.100;2022-07-29T09:54:23;29.60;48.30
25708;DHT22;13567;61.652;17.100;2022-07-29T09:56:50;29.20;46.70
25708;DHT22;13567;61.652;17.100;2022-07-29T09:59:18;28.70;48.80
25708;DHT22;13567;61.652;17.100;2022-07-29T10:01:48;28.10;47.50
25708;DHT22;13567;61.652;17.100;2022-07-29T10:04:16;28.50;48.60
25708;DHT22;13567;61.652;17.100;2022-07-29T10:06:59;28.70;48.50
25708;DHT22;13567;61.652;17.100;2022-07-29T10:09:31;29.00;48.60
25708;DHT22;13567;61.652;17.100;2022-07-29T10:12:06;29.40;47.60
25708;DHT22;13567;61.652;17.100;2022-07-29T10:14:33;28.10;48.20
25708;DHT22;13567;61.652;17.100;2022-07-29T10:17:01;28.50;49.30
25708;DHT22;13567;61.652;17.100;2022-07-29T10:19:29;29.20;48.60
25708;DHT22;13567;61.652;17.100;2022-07-29T10:22:02;29.10;47.20
25708;DHT22;13567;61.652;17.100;2022-07-29T10:24:31;27.80;48.90
25708;DHT22;13567;61.652;17.100;2022-07-29T10:27:00;27.40;51.10
25708;DHT22;13567;61.652;17.100;2022-07-29T10:29:28;28.30;50.80
25708;DHT22;13567;61.652;17.100;2022-07-29T10:32:16;29.00;49.40
25708;DHT22;13567;61.652;17.100;2022-07-29T10:34:57;30.30;47.30
25708;DHT22;13567;61.652;17.100;2022-07-29T10:37:30;30.50;45.30
25708;DHT22;13567;61.652;17.100;2022-07-29T10:40:22;30.60;45.40
25708;DHT22;13567;61.652;17.100;2022-07-29T10:43:21;31.30;46.30
25708;DHT22;13567;61.652;17.100;2022-07-29T10:45:56;31.80;45.60
25708;DHT22;13567;61.652;17.100;2022-07-29T10:48:24;32.20;43.30
25708;DHT22;13567;61.652;17.100;2022-07-29T10:53:50;31.10;43.40
25708;DHT22;13567;61.652;17.100;2022-07-29T10:56:30;32.00;43.90
25708;DHT22;13567;61.652;17.100;2022-07-29T11:01:50;31.50;43.00
25708;DHT22;13567;61.652;17.100;2022-07-29T11:07:10;29.60;44.80
25708;DHT22;13567;61.652;17.100;2022-07-29T11:09:40;29.40;45.00
25708;DHT22;13567;61.652;17.100;2022-07-29T11:15:12;31.10;46.70
25708;DHT22;13567;61.652;17.100;2022-07-29T11:20:40;32.10;42.10
25708;DHT22;13567;61.652;17.100;2022-07-29T11:23:33;32.30;43.90
25708;DHT22;13567;61.652;17.100;2022-07-29T11:31:43;27.60;46.70
25708;DHT22;13567;61.652;17.100;2022-07-29T11:47:58;30.70;43.90
25708;DHT22;13567;61.652;17.100;2022-07-29T11:50:45;30.10;46.60
25708;DHT22;13567;61.652;17.100;2022-07-29T11:53:14;31.40;46.50
25708;DHT22;13567;61.652;17.100;2022-07-29T11:55:42;29.50;44.70
25708;DHT22;13567;61.652;17.100;2022-07-29T11:58:21;27.40;49.10
25708;DHT22;13567;61.652;17.100;2022-07-29T12:01:13;27.50;51.30
25708;DHT22;13567;61.652;17.100;2022-07-29T12:03:40;28.80;47.60
25708;DHT22;13567;61.652;17.100;2022-07-29T12:06:13;28.30;47.90
25708;DHT22;13567;61.652;17.100;2022-07-29T12:08:44;28.10;48.60
25708;DHT22;13567;61.652;17.100;2022-07-29T12:11:18;27.80;51.00
25708;DHT22;13567;61.652;17.100;2022-07-29T12:13:50;28.10;50.10
25708;DHT22;13567;61.652;17.100;2022-07-29T12:16:18;27.60;49.10
25708;DHT22;13567;61.652;17.100;2022-07-29T12:18:59;27.40;49.10
25708;DHT22;13567;61.652;17.100;2022-07-29T12:21:33;26.60;52.10
25708;DHT22;13567;61.652;17.100;2022-07-29T12:24:23;25.30;53.70
25708;DHT22;13567;61.652;17.100;2022-07-29T12:27:00;24.40;57.30
25708;DHT22;13567;61.652;17.100;2022-07-29T12:29:28;24.80;55.60
25708;DHT22;13567;61.652;17.100;2022-07-29T12:32:02;25.50;55.70
25708;DHT22;13567;61.652;17.100;2022-07-29T12:34:30;26.00;54.70
25708;DHT22;13567;61.652;17.100;2022-07-29T12:36:57;26.50;53.70
25708;DHT22;13567;61.652;17.100;2022-07-29T12:39:25;26.80;52.70
25708;DHT22;13567;61.652;17.100;2022-07-29T12:41:54;26.10;53.80
25708;DHT22;13567;61.652;17.100;2022-07-29T12:44:47;24.80;55.50
25708;DHT22;13567;61.652;17.100;2022-07-29T12:47:15;24.50;55.90
25708;DHT22;13567;61.652;17.100;2022-07-29T12:49:42;24.50;58.10
25708;DHT22;13567;61.652;17.100;2022-07-29T12:52:28;24.50;56.70
25708;DHT22;13567;61.652;17.100;2022-07-29T12:54:56;25.20;57.90
25708;DHT22;13567;61.652;17.100;2022-07-29T12:57:23;24.20;57.60
25708;DHT22;13567;61.652;17.100;2022-07-29T13:00:10;23.90;59.10
25708;DHT22;13567;61.652;17.100;2022-07-29T13:02:40;23.70;59.10
25708;DHT22;13567;61.652;17.100;2022-07-29T13:05:09;23.20;58.00
25708;DHT22;13567;61.652;17.100;2022-07-29T13:07:37;23.00;60.50
25708;DHT22;13567;61.652;17.100;2022-07-29T13:10:23;22.30;60.50
25708;DHT22;13567;61.652;17.100;2022-07-29T13:15:32;23.00;61.10
25708;DHT22;13567;61.652;17.100;2022-07-29T13:18:00;22.10;59.80
25708;DHT22;13567;61.652;17.100;2022-07-29T13:20:28;21.70;62.40
25708;DHT22;13567;61.652;17.100;2022-07-29T13:23:01;21.70;63.80
25708;DHT22;13567;61.652;17.100;2022-07-29T13:25:30;21.80;63.50
25708;DHT22;13567;61.652;17.100;2022-07-29T13:27:59;21.60;63.80
25708;DHT22;13567;61.652;17.100;2022-07-29T13:30:26;21.60;62.50
25708;DHT22;13567;61.652;17.100;2022-07-29T13:32:54;21.70;65.20
25708;DHT22;13567;61.652;17.100;2022-07-29T13:35:21;21.20;64.60
25708;DHT22;13567;61.652;17.100;2022-07-29T13:37:48;21.00;66.20
25708;DHT22;13567;61.652;17.100;2022-07-29T13:40:17;21.20;65.40
25708;DHT22;13567;61.652;17.100;2022-07-29T13:42:44;21.20;65.30
25708;DHT22;13567;61.652;17.100;2022-07-29T13:45:12;21.00;64.90
25708;DHT22;13567;61.652;17.100;2022-07-29T13:47:39;20.60;67.00
25708;DHT22;13567;61.652;17.100;2022-07-29T13:50:14;20.90;67.10
25708;DHT22;13567;61.652;17.100;2022-07-29T13:52:41;20.80;66.60
25708;DHT22;13567;61.652;17.100;2022-07-29T13:55:08;20.40;67.40
25708;DHT22;13567;61.652;17.100;2022-07-29T13:57:35;20.40;68.20
25708;DHT22;13567;61.652;17.100;2022-07-29T14:00:03;20.10;68.90
25708;DHT22;13567;61.652;17.100;2022-07-29T14:02:30;20.10;70.00
25708;DHT22;13567;61.652;17.100;2022-07-29T14:04:58;19.90;71.40
25708;DHT22;13567;61.652;17.100;2022-07-29T14:07:25;20.20;68.90
25708;DHT22;13567;61.652;17.100;2022-07-29T14:09:52;20.00;68.20
25708;DHT22;13567;61.652;17.100;2022-07-29T14:12:18;19.80;67.90
25708;DHT22;13567;61.652;17.100;2022-07-29T14:14:46;19.90;68.90
25708;DHT22;13567;61.652;17.100;2022-07-29T14:17:13;20.00;69.30
25708;DHT22;13567;61.652;17.100;2022-07-29T14:19:41;19.90;65.40
25708;DHT22;13567;61.652;17.100;2022-07-29T14:22:08;20.30;65.90
25708;DHT22;13567;61.652;17.100;2022-07-29T14:24:37;20.50;67.10
25708;DHT22;13567;61.652;17.100;2022-07-29T14:27:05;20.20;67.60
25708;DHT22;13567;61.652;17.100;2022-07-29T14:29:32;19.90;68.90
25708;DHT22;13567;61.652;17.100;2022-07-29T14:32:07;19.70;70.10
25708;DHT22;13567;61.652;17.100;2022-07-29T14:34:36;19.50;69.90
25708;DHT22;13567;61.652;17.100;2022-07-29T14:37:04;19.50;71.10
25708;DHT22;13567;61.652;17.100;2022-07-29T14:39:41;19.60;68.70
25708;DHT22;13567;61.652;17.100;2022-07-29T14:42:10;19.40;69.10
25708;DHT22;13567;61.652;17.100;2022-07-29T14:44:39;19.60;69.80
25708;DHT22;13567;61.652;17.100;2022-07-29T14:47:08;19.50;66.80
25708;DHT22;13567;61.652;17.100;2022-07-29T14:49:35;19.70;69.80
25708;DHT22;13567;61.652;17.100;2022-07-29T14:52:02;19.90;68.80
25708;DHT22;13567;61.652;17.100;2022-07-29T14:54:29;20.10;67.60
25708;DHT22;13567;61.652;17.100;2022-07-29T14:56:56;20.20;68.30
25708;DHT22;13567;61.652;17.100;2022-07-29T14:59:25;20.10;71.50
25708;DHT22;13567;61.652;17.100;2022-07-29T15:01:52;19.70;70.40
25708;DHT22;13567;61.652;17.100;2022-07-29T15:04:19;19.50;70.70
25708;DHT22;13567;61.652;17.100;2022-07-29T15:06:46;19.10;70.40
25708;DHT22;13567;61.652;17.100;2022-07-29T15:09:13;19.00;69.70
25708;DHT22;13567;61.652;17.100;2022-07-29T15:11:40;19.30;70.90
25708;DHT22;13567;61.652;17.100;2022-07-29T15:14:08;19.30;67.90
25708;DHT22;13567;61.652;17.100;2022-07-29T15:16:38;19.50;68.80
25708;DHT22;13567;61.652;17.100;2022-07-29T15:19:13;19.80;68.50
25708;DHT22;13567;61.652;17.100;2022-07-29T15:21:40;20.20;69.00
25708;DHT22;13567;61.652;17.100;2022-07-29T15:24:25;20.20;67.60
25708;DHT22;13567;61.652;17.100;2022-07-29T15:26:53;20.10;66.90
25708;DHT22;13567;61.652;17.100;2022-07-29T15:29:20;20.00;67.30
25708;DHT22;13567;61.652;17.100;2022-07-29T15:31:48;19.60;67.80
25708;DHT22;13567;61.652;17.100;2022-07-29T15:34:15;19.60;66.90
25708;DHT22;13567;61.652;17.100;2022-07-29T15:36:42;19.40;67.10
25708;DHT22;13567;61.652;17.100;2022-07-29T15:39:19;19.20;69.80
25708;DHT22;13567;61.652;17.100;2022-07-29T15:41:46;19.00;68.90
25708;DHT22;13567;61.652;17.100;2022-07-29T15:44:13;19.00;68.90
25708;DHT22;13567;61.652;17.100;2022-07-29T15:46:40;18.70;66.90
25708;DHT22;13567;61.652;17.100;2022-07-29T15:49:27;18.40;67.50
25708;DHT22;13567;61.652;17.100;2022-07-29T15:52:16;18.30;69.80
25708;DHT22;13567;61.652;17.100;2022-07-29T15:54:50;18.50;69.10
25708;DHT22;13567;61.652;17.100;2022-07-29T15:57:17;18.30;68.40
25708;DHT22;13567;61.652;17.100;2022-07-29T15:59:44;18.40;72.00
25708;DHT22;13567;61.652;17.100;2022-07-29T16:02:11;18.50;69.70
25708;DHT22;13567;61.652;17.100;2022-07-29T16:04:38;18.10;72.90
25708;DHT22;13567;61.652;17.100;2022-07-29T16:07:05;18.30;73.70
25708;DHT22;13567;61.652;17.100;2022-07-29T16:09:32;18.30;70.40
25708;DHT22;13567;61.652;17.100;2022-07-29T16:11:59;18.10;69.30
25708;DHT22;13567;61.652;17.100;2022-07-29T16:14:26;18.10;73.00
25708;DHT22;13567;61.652;17.100;2022-07-29T16:16:54;18.10;74.70
25708;DHT22;13567;61.652;17.100;2022-07-29T16:19:22;18.00;75.20
25708;DHT22;13567;61.652;17.100;2022-07-29T16:21:49;17.80;77.00
25708;DHT22;13567;61.652;17.100;2022-07-29T16:24:16;17.90;77.50
25708;DHT22;13567;61.652;17.100;2022-07-29T16:26:43;17.90;77.20